sensor_id;sensor_type;location;lat;lon;timestamp;temperature;humidity
55721;DHT22;41626;53.098;6.168;2023-03-01T00:01:50;-0.40;99.90
55721;DHT22;41626;53.098;6.168;2023-03-01T00:04:15;-0.50;99.90
55721;DHT22;41626;53.098;6.168;2023-03-01T00:06:44;-0.50;99.90
55721;DHT22;41626;53.098;6.168;2023-03-01T00:09:11;-0.40;99.90
55721;DHT22;41626;53.098;6.168;2023-03-01T00:11:37;-0.30;99.90
55721;DHT22;41626;53.098;6.168;2023-03-01T00:14:03;-0.30;99.90
55721;DHT22;41626;53.098;6.168;2023-03-01T00:16:33;-0.40;99.90
55721;DHT22;41626;53.098;6.168;2023-03-01T00:18:59;-0.50;99.90
55721;DHT22;41626;53.098;6.168;2023-03-01T00:21:25;-0.60;99.90
55721;DHT22;41626;53.098;6.168;2023-03-01T00:23:51;-0.60;99.90
55721;DHT22;41626;53.098;6.168;2023-03-01T00:26:17;-0.50;99.90
55721;DHT22;41626;53.098;6.168;2023-03-01T00:28:43;-0.70;99.90
55721;DHT22;41626;53.098;6.168;2023-03-01T00:31:10;-0.60;99.90
55721;DHT22;41626;53.098;6.168;2023-03-01T00:33:36;-0.60;99.90
55721;DHT22;41626;53.098;6.168;2023-03-01T00:36:02;-0.90;99.90
55721;DHT22;41626;53.098;6.168;2023-03-01T00:38:27;-0.90;99.90
55721;DHT22;41626;53.098;6.168;2023-03-01T00:40:53;-0.80;99.90
55721;DHT22;41626;53.098;6.168;2023-03-01T00:43:19;-0.90;99.90
55721;DHT22;41626;53.098;6.168;2023-03-01T00:45:45;-0.90;99.90
55721;DHT22;41626;53.098;6.168;2023-03-01T00:48:10;-0.90;99.90
55721;DHT22;41626;53.098;6.168;2023-03-01T00:50:36;-0.90;99.90
55721;DHT22;41626;53.098;6.168;2023-03-01T00:53:01;-0.90;99.90
55721;DHT22;41626;53.098;6.168;2023-03-01T00:55:27;-0.80;99.90
55721;DHT22;41626;53.098;6.168;2023-03-01T00:57:53;-0.90;99.90
55721;DHT22;41626;53.098;6.168;2023-03-01T01:00:19;-0.80;99.90
55721;DHT22;41626;53.098;6.168;2023-03-01T01:02:44;-1.00;99.90
55721;DHT22;41626;53.098;6.168;2023-03-01T01:05:10;-1.00;99.90
55721;DHT22;41626;53.098;6.168;2023-03-01T01:07:36;-0.80;99.90
55721;DHT22;41626;53.098;6.168;2023-03-01T01:10:02;-0.90;99.90
55721;DHT22;41626;53.098;6.168;2023-03-01T01:12:27;-0.90;99.90
55721;DHT22;41626;53.098;6.168;2023-03-01T01:14:53;-0.80;99.90
55721;DHT22;41626;53.098;6.168;2023-03-01T01:17:19;-1.00;99.90
55721;DHT22;41626;53.098;6.168;2023-03-01T01:19:44;-1.00;99.90
55721;DHT22;41626;53.098;6.168;2023-03-01T01:22:10;-1.00;99.90
55721;DHT22;41626;53.098;6.168;2023-03-01T01:24:35;-0.90;99.90
55721;DHT22;41626;53.098;6.168;2023-03-01T01:27:01;-0.90;99.90
55721;DHT22;41626;53.098;6.168;2023-03-01T01:29:27;-0.90;99.90
55721;DHT22;41626;53.098;6.168;2023-03-01T01:31:52;-0.80;99.90
55721;DHT22;41626;53.098;6.168;2023-03-01T01:34:19;-1.00;99.90
55721;DHT22;41626;53.098;6.168;2023-03-01T01:36:48;-1.00;99.90
55721;DHT22;41626;53.098;6.168;2023-03-01T01:39:15;-1.00;99.90
55721;DHT22;41626;53.098;6.168;2023-03-01T01:41:41;-1.00;99.90
55721;DHT22;41626;53.098;6.168;2023-03-01T01:44:23;-1.00;99.90
55721;DHT22;41626;53.098;6.168;2023-03-01T01:46:50;-1.00;99.90
55721;DHT22;41626;53.098;6.168;2023-03-01T01:49:25;-0.90;99.90
55721;DHT22;41626;53.098;6.168;2023-03-01T01:51:55;-1.00;99.90
55721;DHT22;41626;53.098;6.168;2023-03-01T01:54:23;-1.10;99.90
55721;DHT22;41626;53.098;6.168;2023-03-01T01:56:55;-1.10;99.90
55721;DHT22;41626;53.098;6.168;2023-03-01T01:59:23;-1.00;99.90
55721;DHT22;41626;53.098;6.168;2023-03-01T02:01:50;-1.10;99.90
55721;DHT22;41626;53.098;6.168;2023-03-01T02:04:16;-1.10;99.90
55721;DHT22;41626;53.098;6.168;2023-03-01T02:06:45;-1.00;99.90
55721;DHT22;41626;53.098;6.168;2023-03-01T02:09:15;-1.20;99.90
55721;DHT22;41626;53.098;6.168;2023-03-01T02:11:41;-1.40;99.90
55721;DHT22;41626;53.098;6.168;2023-03-01T02:14:08;-1.30;99.90
55721;DHT22;41626;53.098;6.168;2023-03-01T02:16:34;-1.50;99.90
55721;DHT22;41626;53.098;6.168;2023-03-01T02:19:00;-1.50;99.90
55721;DHT22;41626;53.098;6.168;2023-03-01T02:24:02;-1.40;99.90
55721;DHT22;41626;53.098;6.168;2023-03-01T02:26:31;-1.40;99.90
55721;DHT22;41626;53.098;6.168;2023-03-01T02:28:58;-1.60;99.90
55721;DHT22;41626;53.098;6.168;2023-03-01T02:31:24;-1.90;99.90
55721;DHT22;41626;53.098;6.168;2023-03-01T02:34:09;-1.80;99.90
55721;DHT22;41626;53.098;6.168;2023-03-01T02:36:36;-1.60;99.90
55721;DHT22;41626;53.098;6.168;2023-03-01T02:39:03;-1.60;99.90
55721;DHT22;41626;53.098;6.168;2023-03-01T02:41:32;-1.60;99.90
55721;DHT22;41626;53.098;6.168;2023-03-01T02:43:59;-1.70;99.90
55721;DHT22;41626;53.098;6.168;2023-03-01T02:46:25;-2.00;99.90
55721;DHT22;41626;53.098;6.168;2023-03-01T02:48:52;-1.90;99.90
55721;DHT22;41626;53.098;6.168;2023-03-01T02:56:43;-1.60;99.90
55721;DHT22;41626;53.098;6.168;2023-03-01T02:59:09;-1.70;99.90
55721;DHT22;41626;53.098;6.168;2023-03-01T03:01:35;-1.70;99.90
55721;DHT22;41626;53.098;6.168;2023-03-01T03:04:05;-1.70;99.90
55721;DHT22;41626;53.098;6.168;2023-03-01T03:06:30;-1.70;99.90
55721;DHT22;41626;53.098;6.168;2023-03-01T03:08:56;-1.80;99.90
55721;DHT22;41626;53.098;6.168;2023-03-01T03:11:22;-1.80;99.90
55721;DHT22;41626;53.098;6.168;2023-03-01T03:13:47;-1.80;99.90
55721;DHT22;41626;53.098;6.168;2023-03-01T03:16:13;-1.80;99.90
55721;DHT22;41626;53.098;6.168;2023-03-01T03:18:39;-1.90;99.90
55721;DHT22;41626;53.098;6.168;2023-03-01T03:21:07;-2.00;99.90
55721;DHT22;41626;53.098;6.168;2023-03-01T03:23:33;-2.20;99.90
55721;DHT22;41626;53.098;6.168;2023-03-01T03:25:58;-2.20;99.90
55721;DHT22;41626;53.098;6.168;2023-03-01T03:28:24;-2.10;99.90
55721;DHT22;41626;53.098;6.168;2023-03-01T03:30:49;-2.20;99.90
55721;DHT22;41626;53.098;6.168;2023-03-01T03:33:15;-2.10;99.90
55721;DHT22;41626;53.098;6.168;2023-03-01T03:35:42;-2.20;99.90
55721;DHT22;41626;53.098;6.168;2023-03-01T03:38:09;-2.10;99.90
55721;DHT22;41626;53.098;6.168;2023-03-01T03:40:47;-2.30;99.90
55721;DHT22;41626;53.098;6.168;2023-03-01T03:43:18;-2.20;99.90
55721;DHT22;41626;53.098;6.168;2023-03-01T03:45:44;-2.20;99.90
55721;DHT22;41626;53.098;6.168;2023-03-01T03:48:10;-2.40;99.90
55721;DHT22;41626;53.098;6.168;2023-03-01T03:50:37;-2.60;99.90
55721;DHT22;41626;53.098;6.168;2023-03-01T03:53:03;-2.90;99.90
55721;DHT22;41626;53.098;6.168;2023-03-01T03:55:30;-2.90;99.90
55721;DHT22;41626;53.098;6.168;2023-03-01T03:57:59;-2.90;99.90
55721;DHT22;41626;53.098;6.168;2023-03-01T04:00:27;-2.80;99.90
55721;DHT22;41626;53.098;6.168;2023-03-01T04:02:53;-2.80;99.90
55721;DHT22;41626;53.098;6.168;2023-03-01T04:05:21;-2.80;99.90
55721;DHT22;41626;53.098;6.168;2023-03-01T04:07:47;-2.90;99.90
55721;DHT22;41626;53.098;6.168;2023-03-01T04:10:14;-2.80;99.90
55721;DHT22;41626;53.098;6.168;2023-03-01T04:12:40;-2.80;99.90
55721;DHT22;41626;53.098;6.168;2023-03-01T04:15:07;-2.80;99.90
55721;DHT22;41626;53.098;6.168;2023-03-01T04:17:42;-2.90;99.90
55721;DHT22;41626;53.098;6.168;2023-03-01T04:20:09;-2.90;99.90
55721;DHT22;41626;53.098;6.168;2023-03-01T04:22:36;-2.90;99.90
55721;DHT22;41626;53.098;6.168;2023-03-01T04:25:02;-3.10;99.90
55721;DHT22;41626;53.098;6.168;2023-03-01T04:27:27;-3.10;99.90
55721;DHT22;41626;53.098;6.168;2023-03-01T04:29:53;-3.00;99.90
55721;DHT22;41626;53.098;6.168;2023-03-01T04:32:18;-3.20;99.90
55721;DHT22;41626;53.098;6.168;2023-03-01T04:34:44;-3.10;99.90
55721;DHT22;41626;53.098;6.168;2023-03-01T04:37:10;-3.20;99.90
55721;DHT22;41626;53.098;6.168;2023-03-01T04:39:35;-3.20;99.90
55721;DHT22;41626;53.098;6.168;2023-03-01T04:42:19;-3.20;99.90
55721;DHT22;41626;53.098;6.168;2023-03-01T04:44:45;-3.20;99.90
55721;DHT22;41626;53.098;6.168;2023-03-01T04:47:11;-3.20;99.90
55721;DHT22;41626;53.098;6.168;2023-03-01T04:49:37;-3.30;99.90
55721;DHT22;41626;53.098;6.168;2023-03-01T04:52:03;-3.30;99.90
55721;DHT22;41626;53.098;6.168;2023-03-01T04:54:32;-3.40;99.90
55721;DHT22;41626;53.098;6.168;2023-03-01T04:56:59;-3.20;99.90
55721;DHT22;41626;53.098;6.168;2023-03-01T04:59:25;-3.30;99.90
55721;DHT22;41626;53.098;6.168;2023-03-01T05:01:51;-3.50;99.90
55721;DHT22;41626;53.098;6.168;2023-03-01T05:04:16;-3.50;99.90
55721;DHT22;41626;53.098;6.168;2023-03-01T05:06:42;-3.30;99.90
55721;DHT22;41626;53.098;6.168;2023-03-01T05:09:08;-3.30;99.90
55721;DHT22;41626;53.098;6.168;2023-03-01T05:11:34;-3.40;99.90
55721;DHT22;41626;53.098;6.168;2023-03-01T05:14:01;-3.40;99.90
55721;DHT22;41626;53.098;6.168;2023-03-01T05:16:27;-3.60;99.90
55721;DHT22;41626;53.098;6.168;2023-03-01T05:18:53;-3.70;99.90
55721;DHT22;41626;53.098;6.168;2023-03-01T05:21:20;-3.80;99.90
55721;DHT22;41626;53.098;6.168;2023-03-01T05:23:46;-3.60;99.90
55721;DHT22;41626;53.098;6.168;2023-03-01T05:26:12;-3.60;99.90
55721;DHT22;41626;53.098;6.168;2023-03-01T05:28:38;-3.60;99.90
55721;DHT22;41626;53.098;6.168;2023-03-01T05:31:03;-3.60;99.90
55721;DHT22;41626;53.098;6.168;2023-03-01T05:33:40;-3.50;99.90
55721;DHT22;41626;53.098;6.168;2023-03-01T05:36:07;-3.40;99.90
55721;DHT22;41626;53.098;6.168;2023-03-01T05:38:33;-3.30;99.90
55721;DHT22;41626;53.098;6.168;2023-03-01T05:40:58;-3.40;99.90
55721;DHT22;41626;53.098;6.168;2023-03-01T05:43:24;-3.40;99.90
55721;DHT22;41626;53.098;6.168;2023-03-01T05:45:49;-3.40;99.90
55721;DHT22;41626;53.098;6.168;2023-03-01T05:48:15;-3.60;99.90
55721;DHT22;41626;53.098;6.168;2023-03-01T05:50:41;-3.70;99.90
55721;DHT22;41626;53.098;6.168;2023-03-01T05:53:14;-3.90;99.90
55721;DHT22;41626;53.098;6.168;2023-03-01T05:55:40;-3.90;99.90
55721;DHT22;41626;53.098;6.168;2023-03-01T05:58:07;-3.80;99.90
55721;DHT22;41626;53.098;6.168;2023-03-01T06:00:34;-3.90;99.90
55721;DHT22;41626;53.098;6.168;2023-03-01T06:03:00;-3.80;99.90
55721;DHT22;41626;53.098;6.168;2023-03-01T06:05:26;-3.70;99.90
55721;DHT22;41626;53.098;6.168;2023-03-01T06:07:52;-3.80;99.90
55721;DHT22;41626;53.098;6.168;2023-03-01T06:10:18;-3.90;99.90
55721;DHT22;41626;53.098;6.168;2023-03-01T06:12:45;-3.90;99.90
55721;DHT22;41626;53.098;6.168;2023-03-01T06:15:11;-3.70;99.90
55721;DHT22;41626;53.098;6.168;2023-03-01T06:17:37;-3.70;99.90
55721;DHT22;41626;53.098;6.168;2023-03-01T06:20:10;-3.70;99.90
55721;DHT22;41626;53.098;6.168;2023-03-01T06:22:36;-3.80;99.90
55721;DHT22;41626;53.098;6.168;2023-03-01T06:25:02;-3.70;99.90
55721;DHT22;41626;53.098;6.168;2023-03-01T06:27:28;-3.60;99.90
55721;DHT22;41626;53.098;6.168;2023-03-01T06:29:53;-3.60;99.90
55721;DHT22;41626;53.098;6.168;2023-03-01T06:32:19;-3.60;99.90
55721;DHT22;41626;53.098;6.168;2023-03-01T06:34:45;-3.40;99.90
55721;DHT22;41626;53.098;6.168;2023-03-01T06:37:10;-3.60;99.90
55721;DHT22;41626;53.098;6.168;2023-03-01T06:39:36;-3.70;99.90
55721;DHT22;41626;53.098;6.168;2023-03-01T06:42:01;-3.80;99.90
55721;DHT22;41626;53.098;6.168;2023-03-01T06:44:27;-3.70;99.90
55721;DHT22;41626;53.098;6.168;2023-03-01T06:46:52;-3.70;99.90
55721;DHT22;41626;53.098;6.168;2023-03-01T06:49:18;-3.90;99.90
55721;DHT22;41626;53.098;6.168;2023-03-01T06:51:45;-3.60;99.90
55721;DHT22;41626;53.098;6.168;2023-03-01T06:54:11;-3.60;99.90
55721;DHT22;41626;53.098;6.168;2023-03-01T06:56:37;-3.50;99.90
55721;DHT22;41626;53.098;6.168;2023-03-01T06:59:02;-3.50;99.90
55721;DHT22;41626;53.098;6.168;2023-03-01T07:01:28;-3.60;99.90
55721;DHT22;41626;53.098;6.168;2023-03-01T07:03:54;-3.60;99.90
55721;DHT22;41626;53.098;6.168;2023-03-01T07:06:19;-3.70;99.90
55721;DHT22;41626;53.098;6.168;2023-03-01T07:08:45;-3.70;99.90
55721;DHT22;41626;53.098;6.168;2023-03-01T07:11:11;-3.50;99.90
55721;DHT22;41626;53.098;6.168;2023-03-01T07:13:36;-3.60;99.90
55721;DHT22;41626;53.098;6.168;2023-03-01T07:16:02;-3.40;99.90
55721;DHT22;41626;53.098;6.168;2023-03-01T07:18:27;-3.40;99.90
55721;DHT22;41626;53.098;6.168;2023-03-01T07:20:53;-3.40;99.90
55721;DHT22;41626;53.098;6.168;2023-03-01T07:23:19;-3.20;99.90
55721;DHT22;41626;53.098;6.168;2023-03-01T07:25:44;-3.10;99.90
55721;DHT22;41626;53.098;6.168;2023-03-01T07:28:15;-3.10;99.90
55721;DHT22;41626;53.098;6.168;2023-03-01T07:30:41;-3.00;99.90
55721;DHT22;41626;53.098;6.168;2023-03-01T07:33:06;-2.90;99.90
55721;DHT22;41626;53.098;6.168;2023-03-01T07:35:33;-2.80;99.90
55721;DHT22;41626;53.098;6.168;2023-03-01T07:37:58;-2.50;99.90
55721;DHT22;41626;53.098;6.168;2023-03-01T07:40:24;-2.40;99.90
55721;DHT22;41626;53.098;6.168;2023-03-01T07:42:54;-2.30;99.90
55721;DHT22;41626;53.098;6.168;2023-03-01T07:45:20;-2.30;99.90
55721;DHT22;41626;53.098;6.168;2023-03-01T07:47:45;-2.00;99.90
55721;DHT22;41626;53.098;6.168;2023-03-01T07:50:11;-2.00;99.90
55721;DHT22;41626;53.098;6.168;2023-03-01T07:52:36;-1.60;99.90
55721;DHT22;41626;53.098;6.168;2023-03-01T07:55:02;-1.60;99.90
55721;DHT22;41626;53.098;6.168;2023-03-01T07:57:27;-1.40;99.90
55721;DHT22;41626;53.098;6.168;2023-03-01T07:59:53;-1.20;99.90
55721;DHT22;41626;53.098;6.168;2023-03-01T08:02:18;-1.20;99.90
55721;DHT22;41626;53.098;6.168;2023-03-01T08:04:44;-1.10;99.90
55721;DHT22;41626;53.098;6.168;2023-03-01T08:07:10;-0.90;99.90
55721;DHT22;41626;53.098;6.168;2023-03-01T08:09:35;-0.70;99.90
55721;DHT22;41626;53.098;6.168;2023-03-01T08:12:02;-0.70;99.90
55721;DHT22;41626;53.098;6.168;2023-03-01T08:14:30;-0.40;99.90
55721;DHT22;41626;53.098;6.168;2023-03-01T08:16:56;-0.40;99.90
55721;DHT22;41626;53.098;6.168;2023-03-01T08:19:21;-0.20;99.90
55721;DHT22;41626;53.098;6.168;2023-03-01T08:21:47;-0.20;99.90
55721;DHT22;41626;53.098;6.168;2023-03-01T08:24:12;-0.20;99.90
55721;DHT22;41626;53.098;6.168;2023-03-01T08:26:39;0.10;99.90
55721;DHT22;41626;53.098;6.168;2023-03-01T08:29:04;0.10;99.90
55721;DHT22;41626;53.098;6.168;2023-03-01T08:31:37;0.30;99.90
55721;DHT22;41626;53.098;6.168;2023-03-01T08:34:05;0.20;99.90
55721;DHT22;41626;53.098;6.168;2023-03-01T08:36:32;0.40;99.90
55721;DHT22;41626;53.098;6.168;2023-03-01T08:38:58;0.40;99.90
55721;DHT22;41626;53.098;6.168;2023-03-01T08:41:23;0.50;99.90
55721;DHT22;41626;53.098;6.168;2023-03-01T08:43:49;0.50;99.90
55721;DHT22;41626;53.098;6.168;2023-03-01T08:46:14;0.70;99.90
55721;DHT22;41626;53.098;6.168;2023-03-01T08:48:40;0.80;99.90
55721;DHT22;41626;53.098;6.168;2023-03-01T08:51:09;1.00;99.90
55721;DHT22;41626;53.098;6.168;2023-03-01T08:53:34;1.10;99.90
55721;DHT22;41626;53.098;6.168;2023-03-01T08:56:00;1.30;99.90
55721;DHT22;41626;53.098;6.168;2023-03-01T08:58:28;1.30;99.90
55721;DHT22;41626;53.098;6.168;2023-03-01T09:00:53;1.50;99.90
55721;DHT22;41626;53.098;6.168;2023-03-01T09:03:19;1.50;99.90
55721;DHT22;41626;53.098;6.168;2023-03-01T09:05:44;1.60;99.90
55721;DHT22;41626;53.098;6.168;2023-03-01T09:08:11;1.70;99.90
55721;DHT22;41626;53.098;6.168;2023-03-01T09:10:37;1.80;99.90
55721;DHT22;41626;53.098;6.168;2023-03-01T09:13:03;1.90;99.90
55721;DHT22;41626;53.098;6.168;2023-03-01T09:15:28;2.10;99.90
55721;DHT22;41626;53.098;6.168;2023-03-01T09:17:54;2.10;99.90
55721;DHT22;41626;53.098;6.168;2023-03-01T09:20:19;2.40;99.90
55721;DHT22;41626;53.098;6.168;2023-03-01T09:22:45;2.40;99.90
55721;DHT22;41626;53.098;6.168;2023-03-01T09:25:10;2.50;99.90
55721;DHT22;41626;53.098;6.168;2023-03-01T09:27:36;2.50;99.90
55721;DHT22;41626;53.098;6.168;2023-03-01T09:30:02;2.60;99.90
55721;DHT22;41626;53.098;6.168;2023-03-01T09:32:29;2.70;99.90
55721;DHT22;41626;53.098;6.168;2023-03-01T09:34:55;2.70;99.90
55721;DHT22;41626;53.098;6.168;2023-03-01T09:37:29;2.90;99.90
55721;DHT22;41626;53.098;6.168;2023-03-01T09:39:54;3.00;99.90
55721;DHT22;41626;53.098;6.168;2023-03-01T09:42:20;3.10;99.90
55721;DHT22;41626;53.098;6.168;2023-03-01T09:44:54;3.10;99.90
55721;DHT22;41626;53.098;6.168;2023-03-01T09:47:29;3.30;99.90
55721;DHT22;41626;53.098;6.168;2023-03-01T09:50:15;3.40;99.90
55721;DHT22;41626;53.098;6.168;2023-03-01T09:52:50;3.50;99.90
55721;DHT22;41626;53.098;6.168;2023-03-01T09:55:20;3.60;99.90
55721;DHT22;41626;53.098;6.168;2023-03-01T09:57:52;3.70;99.90
55721;DHT22;41626;53.098;6.168;2023-03-01T10:06:21;4.00;99.90
55721;DHT22;41626;53.098;6.168;2023-03-01T10:08:41;4.00;99.90
55721;DHT22;41626;53.098;6.168;2023-03-01T10:11:22;4.10;99.90
55721;DHT22;41626;53.098;6.168;2023-03-01T10:16:21;4.40;99.90
55721;DHT22;41626;53.098;6.168;2023-03-01T10:18:51;4.40;99.90
55721;DHT22;41626;53.098;6.168;2023-03-01T10:21:18;4.50;99.90
55721;DHT22;41626;53.098;6.168;2023-03-01T10:23:44;4.60;99.90
55721;DHT22;41626;53.098;6.168;2023-03-01T10:31:47;4.70;99.90
55721;DHT22;41626;53.098;6.168;2023-03-01T10:34:14;4.80;99.90
55721;DHT22;41626;53.098;6.168;2023-03-01T10:36:41;4.90;99.90
55721;DHT22;41626;53.098;6.168;2023-03-01T10:39:14;5.00;99.90
55721;DHT22;41626;53.098;6.168;2023-03-01T10:41:47;4.90;99.90
55721;DHT22;41626;53.098;6.168;2023-03-01T10:47:01;5.20;99.90
55721;DHT22;41626;53.098;6.168;2023-03-01T10:49:27;5.30;99.90
55721;DHT22;41626;53.098;6.168;2023-03-01T10:51:53;5.30;99.90
55721;DHT22;41626;53.098;6.168;2023-03-01T10:54:24;5.30;99.90
55721;DHT22;41626;53.098;6.168;2023-03-01T10:56:51;5.40;99.90
55721;DHT22;41626;53.098;6.168;2023-03-01T11:04:34;5.40;99.90
55721;DHT22;41626;53.098;6.168;2023-03-01T11:07:00;5.40;99.90
55721;DHT22;41626;53.098;6.168;2023-03-01T11:09:26;5.50;99.90
55721;DHT22;41626;53.098;6.168;2023-03-01T11:11:58;5.60;99.90
55721;DHT22;41626;53.098;6.168;2023-03-01T11:14:30;5.60;99.90
55721;DHT22;41626;53.098;6.168;2023-03-01T11:17:01;5.70;99.90
55721;DHT22;41626;53.098;6.168;2023-03-01T11:19:27;5.70;99.90
55721;DHT22;41626;53.098;6.168;2023-03-01T11:24:40;5.80;99.90
55721;DHT22;41626;53.098;6.168;2023-03-01T11:27:17;5.70;99.90
55721;DHT22;41626;53.098;6.168;2023-03-01T11:32:36;5.90;99.90
55721;DHT22;41626;53.098;6.168;2023-03-01T11:35:09;5.90;99.90
55721;DHT22;41626;53.098;6.168;2023-03-01T11:37:38;6.00;99.90
55721;DHT22;41626;53.098;6.168;2023-03-01T11:40:10;6.00;99.90
55721;DHT22;41626;53.098;6.168;2023-03-01T11:42:44;6.00;99.90
55721;DHT22;41626;53.098;6.168;2023-03-01T11:45:12;6.00;99.90
55721;DHT22;41626;53.098;6.168;2023-03-01T11:47:42;6.20;99.90
55721;DHT22;41626;53.098;6.168;2023-03-01T11:50:13;6.30;99.90
55721;DHT22;41626;53.098;6.168;2023-03-01T11:52:44;6.20;99.90
55721;DHT22;41626;53.098;6.168;2023-03-01T12:07:52;6.50;99.90
55721;DHT22;41626;53.098;6.168;2023-03-01T12:36:46;6.60;99.90
55721;DHT22;41626;53.098;6.168;2023-03-01T12:38:40;6.50;99.90
55721;DHT22;41626;53.098;6.168;2023-03-01T12:41:55;6.60;99.90
55721;DHT22;41626;53.098;6.168;2023-03-01T12:51:28;6.90;99.90
55721;DHT22;41626;53.098;6.168;2023-03-01T12:53:55;6.70;99.90
55721;DHT22;41626;53.098;6.168;2023-03-01T12:56:24;6.80;99.90
55721;DHT22;41626;53.098;6.168;2023-03-01T13:11:48;7.20;99.90
55721;DHT22;41626;53.098;6.168;2023-03-01T13:16:46;7.10;99.90
55721;DHT22;41626;53.098;6.168;2023-03-01T13:19:24;7.00;99.90
55721;DHT22;41626;53.098;6.168;2023-03-01T13:21:51;6.90;99.90
55721;DHT22;41626;53.098;6.168;2023-03-01T13:24:31;7.10;99.90
55721;DHT22;41626;53.098;6.168;2023-03-01T13:29:30;6.90;99.90
55721;DHT22;41626;53.098;6.168;2023-03-01T13:32:18;7.20;99.90
55721;DHT22;41626;53.098;6.168;2023-03-01T13:34:48;7.10;99.90
55721;DHT22;41626;53.098;6.168;2023-03-01T13:37:24;7.20;99.90
55721;DHT22;41626;53.098;6.168;2023-03-01T13:39:55;7.20;99.90
55721;DHT22;41626;53.098;6.168;2023-03-01T13:42:56;7.10;99.90
55721;DHT22;41626;53.098;6.168;2023-03-01T13:45:20;7.40;99.90
55721;DHT22;41626;53.098;6.168;2023-03-01T13:47:46;7.30;99.90
55721;DHT22;41626;53.098;6.168;2023-03-01T13:50:33;7.20;99.90
55721;DHT22;41626;53.098;6.168;2023-03-01T13:52:59;7.20;99.90
55721;DHT22;41626;53.098;6.168;2023-03-01T13:55:30;7.20;99.90
55721;DHT22;41626;53.098;6.168;2023-03-01T13:58:01;7.20;99.90
55721;DHT22;41626;53.098;6.168;2023-03-01T14:03:03;7.20;99.90
55721;DHT22;41626;53.098;6.168;2023-03-01T14:05:29;7.30;99.90
55721;DHT22;41626;53.098;6.168;2023-03-01T14:07:55;7.10;99.90
55721;DHT22;41626;53.098;6.168;2023-03-01T14:10:21;7.20;99.90
55721;DHT22;41626;53.098;6.168;2023-03-01T14:12:49;7.20;99.90
55721;DHT22;41626;53.098;6.168;2023-03-01T14:15:39;7.10;99.90
55721;DHT22;41626;53.098;6.168;2023-03-01T14:18:10;7.20;99.90
55721;DHT22;41626;53.098;6.168;2023-03-01T14:20:39;7.30;99.90
55721;DHT22;41626;53.098;6.168;2023-03-01T14:23:10;7.30;99.90
55721;DHT22;41626;53.098;6.168;2023-03-01T14:25:37;7.10;99.90
55721;DHT22;41626;53.098;6.168;2023-03-01T14:30:34;7.10;99.90
55721;DHT22;41626;53.098;6.168;2023-03-01T14:33:02;7.10;99.90
55721;DHT22;41626;53.098;6.168;2023-03-01T14:35:29;7.20;99.90
55721;DHT22;41626;53.098;6.168;2023-03-01T14:37:55;7.30;99.90
55721;DHT22;41626;53.098;6.168;2023-03-01T14:40:25;7.10;99.90
55721;DHT22;41626;53.098;6.168;2023-03-01T14:42:51;7.10;99.90
55721;DHT22;41626;53.098;6.168;2023-03-01T14:45:17;7.10;99.90
55721;DHT22;41626;53.098;6.168;2023-03-01T14:47:43;7.10;99.90
55721;DHT22;41626;53.098;6.168;2023-03-01T14:52:39;7.10;99.90
55721;DHT22;41626;53.098;6.168;2023-03-01T14:55:06;7.10;99.90
55721;DHT22;41626;53.098;6.168;2023-03-01T14:57:32;7.20;99.90
55721;DHT22;41626;53.098;6.168;2023-03-01T14:59:58;7.20;99.90
55721;DHT22;41626;53.098;6.168;2023-03-01T15:02:26;7.10;99.90
55721;DHT22;41626;53.098;6.168;2023-03-01T15:04:52;7.20;99.90
55721;DHT22;41626;53.098;6.168;2023-03-01T15:07:19;7.20;99.90
55721;DHT22;41626;53.098;6.168;2023-03-01T15:09:45;7.10;99.90
55721;DHT22;41626;53.098;6.168;2023-03-01T15:14:52;7.10;99.90
55721;DHT22;41626;53.098;6.168;2023-03-01T15:17:34;7.00;99.90
55721;DHT22;41626;53.098;6.168;2023-03-01T15:20:02;7.00;99.90
55721;DHT22;41626;53.098;6.168;2023-03-01T15:22:28;7.00;99.90
55721;DHT22;41626;53.098;6.168;2023-03-01T15:24:54;7.00;99.90
55721;DHT22;41626;53.098;6.168;2023-03-01T15:32:25;7.10;99.90
55721;DHT22;41626;53.098;6.168;2023-03-01T15:34:51;7.20;99.90
55721;DHT22;41626;53.098;6.168;2023-03-01T15:37:53;7.00;99.90
55721;DHT22;41626;53.098;6.168;2023-03-01T15:40:20;7.10;99.90
55721;DHT22;41626;53.098;6.168;2023-03-01T15:42:46;7.10;99.90
55721;DHT22;41626;53.098;6.168;2023-03-01T15:47:47;6.90;99.90
55721;DHT22;41626;53.098;6.168;2023-03-01T15:50:34;6.90;99.90
55721;DHT22;41626;53.098;6.168;2023-03-01T15:53:04;7.00;99.90
55721;DHT22;41626;53.098;6.168;2023-03-01T15:55:32;6.90;99.90
55721;DHT22;41626;53.098;6.168;2023-03-01T16:00:41;6.80;99.90
55721;DHT22;41626;53.098;6.168;2023-03-01T16:03:09;6.90;99.90
55721;DHT22;41626;53.098;6.168;2023-03-01T16:05:37;6.90;99.90
55721;DHT22;41626;53.098;6.168;2023-03-01T16:08:05;6.90;99.90
55721;DHT22;41626;53.098;6.168;2023-03-01T16:10:32;6.80;99.90
55721;DHT22;41626;53.098;6.168;2023-03-01T16:12:58;6.80;99.90
55721;DHT22;41626;53.098;6.168;2023-03-01T16:15:25;6.80;99.90
55721;DHT22;41626;53.098;6.168;2023-03-01T16:17:51;6.70;99.90
55721;DHT22;41626;53.098;6.168;2023-03-01T16:20:17;6.70;99.90
55721;DHT22;41626;53.098;6.168;2023-03-01T16:22:44;6.60;99.90
55721;DHT22;41626;53.098;6.168;2023-03-01T16:25:12;6.60;99.90
55721;DHT22;41626;53.098;6.168;2023-03-01T16:27:38;6.50;99.90
55721;DHT22;41626;53.098;6.168;2023-03-01T16:30:07;6.40;99.90
55721;DHT22;41626;53.098;6.168;2023-03-01T16:32:40;6.40;99.90
55721;DHT22;41626;53.098;6.168;2023-03-01T16:35:08;6.40;99.90
55721;DHT22;41626;53.098;6.168;2023-03-01T16:37:35;6.40;99.90
55721;DHT22;41626;53.098;6.168;2023-03-01T16:40:01;6.30;99.90
55721;DHT22;41626;53.098;6.168;2023-03-01T16:42:27;6.20;99.90
55721;DHT22;41626;53.098;6.168;2023-03-01T16:44:56;6.20;99.90
55721;DHT22;41626;53.098;6.168;2023-03-01T16:47:22;6.20;99.90
55721;DHT22;41626;53.098;6.168;2023-03-01T16:49:52;6.10;99.90
55721;DHT22;41626;53.098;6.168;2023-03-01T16:52:18;6.00;99.90
55721;DHT22;41626;53.098;6.168;2023-03-01T16:54:44;5.90;99.90
55721;DHT22;41626;53.098;6.168;2023-03-01T16:57:09;5.80;99.90
55721;DHT22;41626;53.098;6.168;2023-03-01T16:59:35;5.70;99.90
55721;DHT22;41626;53.098;6.168;2023-03-01T17:02:03;5.70;99.90
55721;DHT22;41626;53.098;6.168;2023-03-01T17:04:28;5.60;99.90
55721;DHT22;41626;53.098;6.168;2023-03-01T17:06:54;5.50;99.90
55721;DHT22;41626;53.098;6.168;2023-03-01T17:09:20;5.40;99.90
55721;DHT22;41626;53.098;6.168;2023-03-01T17:11:48;5.30;99.90
55721;DHT22;41626;53.098;6.168;2023-03-01T17:14:14;5.30;99.90
55721;DHT22;41626;53.098;6.168;2023-03-01T17:16:41;5.10;99.90
55721;DHT22;41626;53.098;6.168;2023-03-01T17:19:07;5.10;99.90
55721;DHT22;41626;53.098;6.168;2023-03-01T17:21:33;4.90;99.90
55721;DHT22;41626;53.098;6.168;2023-03-01T17:23:59;4.90;99.90
55721;DHT22;41626;53.098;6.168;2023-03-01T17:26:25;4.80;99.90
55721;DHT22;41626;53.098;6.168;2023-03-01T17:28:54;4.70;99.90
55721;DHT22;41626;53.098;6.168;2023-03-01T17:31:19;4.70;99.90
55721;DHT22;41626;53.098;6.168;2023-03-01T17:33:45;4.70;99.90
55721;DHT22;41626;53.098;6.168;2023-03-01T17:36:11;4.60;99.90
55721;DHT22;41626;53.098;6.168;2023-03-01T17:38:37;4.60;99.90
55721;DHT22;41626;53.098;6.168;2023-03-01T17:41:03;4.40;99.90